Time;durP1;ratioP1;P1;durP2;ratioP2;P2;SDS_P1;SDS_P2;PMS_P1;PMS_P2;Temp;Humidity;BMP_temperature;BMP_pressure;BME280_temperature;BME280_humidity;BME280_pressure;Samples;Min_cycle;Max_cycle;Signal;HPM_P1;HPM_P2
2023/08/13 00:00:07;;;;;;;6.88;4.57;;;;;;;24.57;53.19;100642.19;4877659;29;20048;-71
2023/08/13 00:02:36;;;;;;;10.05;5.00;;;;;;;24.55;53.19;100644.25;4877421;29;20053;-70
2023/08/13 00:05:05;;;;;;;7.78;5.00;;;;;;;24.54;53.48;100635.22;4877840;29;20139;-71
2023/08/13 00:07:34;;;;;;;8.15;5.10;;;;;;;24.52;53.34;100641.88;4880932;29;20051;-70
2023/08/13 00:10:04;;;;;;;7.97;4.95;;;;;;;24.51;53.57;100638.28;4880514;29;20437;-71
2023/08/13 00:12:33;;;;;;;7.70;5.22;;;;;;;24.49;53.87;100643.03;4880509;29;20049;-71
2023/08/13 00:15:02;;;;;;;8.98;5.22;;;;;;;24.48;53.54;100635.88;4880537;29;20053;-71
2023/08/13 00:17:30;;;;;;;7.75;4.72;;;;;;;24.47;53.83;100639.66;4880543;29;20479;-72
2023/08/13 00:19:58;;;;;;;7.93;5.18;;;;;;;24.45;53.48;100641.69;4880387;29;20089;-71
2023/08/13 00:22:26;;;;;;;6.70;5.22;;;;;;;24.43;53.70;100648.34;4880215;29;20052;-71
2023/08/13 00:24:56;;;;;;;6.88;5.05;;;;;;;24.41;54.07;100645.78;4880249;29;20049;-71
2023/08/13 00:27:24;;;;;;;8.02;5.03;;;;;;;24.41;53.95;100647.66;4880205;29;20056;-72
2023/08/13 00:29:52;;;;;;;6.55;5.00;;;;;;;24.39;53.84;100647.84;4880513;29;20085;-71
2023/08/13 00:32:20;;;;;;;7.03;4.60;;;;;;;24.38;53.87;100646.13;4880414;29;20415;-71
2023/08/13 00:34:48;;;;;;;9.18;5.18;;;;;;;24.35;53.94;100646.47;4880134;29;20049;-71
2023/08/13 00:37:17;;;;;;;8.98;4.90;;;;;;;24.35;53.87;100648.38;4880049;29;20141;-71
2023/08/13 00:39:45;;;;;;;8.02;5.35;;;;;;;24.34;54.11;100643.94;4880092;29;20064;-71
2023/08/13 00:42:14;;;;;;;6.63;4.97;;;;;;;24.32;54.06;100641.38;4879729;29;20440;-71
2023/08/13 00:44:43;;;;;;;8.95;4.88;;;;;;;24.30;54.31;100637.94;4879975;29;20118;-71
2023/08/13 00:47:12;;;;;;;8.20;5.00;;;;;;;24.27;54.26;100627.38;4879996;29;20060;-71
2023/08/13 00:49:40;;;;;;;7.53;5.20;;;;;;;24.26;54.16;100637.44;4879922;29;20064;-71
2023/08/13 00:52:09;;;;;;;8.15;5.15;;;;;;;24.26;54.28;100636.59;4879659;29;20065;-71
2023/08/13 00:54:37;;;;;;;8.57;4.97;;;;;;;24.24;54.38;100636.75;4879777;29;20053;-71
2023/08/13 00:57:05;;;;;;;7.30;4.78;;;;;;;24.22;54.50;100636.09;4880045;29;20051;-71
2023/08/13 00:59:35;;;;;;;6.80;4.65;;;;;;;24.20;54.55;100632.66;4880096;29;20049;-71
2023/08/13 01:02:04;;;;;;;7.10;4.82;;;;;;;24.19;54.51;100641.00;4879410;29;20053;-71
2023/08/13 01:04:32;;;;;;;8.00;5.22;;;;;;;24.17;54.62;100638.44;4879583;29;20092;-71
2023/08/13 01:07:10;;;;;;;7.40;4.88;;;;;;;24.17;54.73;100637.59;4879368;29;20109;-70
2023/08/13 01:09:47;;;;;;;7.95;4.78;;;;;;;24.14;54.68;100632.50;4879596;29;20563;-71
2023/08/13 01:12:23;;;;;;;7.82;4.95;;;;;;;24.13;54.67;100642.56;4879496;29;20048;-72
2023/08/13 01:15:02;;;;;;;6.35;4.47;;;;;;;24.10;54.78;100642.88;4879554;29;20075;-72
2023/08/13 01:17:31;;;;;;;7.97;5.15;;;;;;;24.09;54.47;100641.19;4877996;29;20513;-70
2023/08/13 01:20:00;;;;;;;7.32;4.85;;;;;;;24.08;54.70;100650.38;4879299;29;20053;-70
2023/08/13 01:22:29;;;;;;;6.45;4.63;;;;;;;24.07;54.76;100645.09;4879395;29;20056;-70
2023/08/13 01:24:58;;;;;;;7.10;4.90;;;;;;;24.06;54.76;100640.69;4879324;29;20080;-71
2023/08/13 01:27:31;;;;;;;7.75;4.95;;;;;;;24.04;54.65;100640.00;4877049;29;20088;-71
2023/08/13 01:30:08;;;;;;;7.03;4.57;;;;;;;24.00;54.83;100644.91;4878055;29;20503;-73
2023/08/13 01:32:44;;;;;;;7.82;4.90;;;;;;;24.01;54.74;100648.50;4878900;29;20049;-71
2023/08/13 01:35:13;;;;;;;6.40;4.85;;;;;;;23.97;54.65;100648.84;4878721;29;20119;-71
2023/08/13 01:37:44;;;;;;;9.30;5.00;;;;;;;23.95;54.90;100650.03;4878882;29;20183;-71
2023/08/13 01:40:12;;;;;;;7.95;4.20;;;;;;;23.94;54.80;100654.63;4878744;29;20101;-71
2023/08/13 01:42:41;;;;;;;8.45;4.75;;;;;;;23.93;54.78;100649.34;4878336;29;20132;-71
2023/08/13 01:45:09;;;;;;;8.02;4.65;;;;;;;23.91;54.71;100649.50;4878819;29;20459;-71
2023/08/13 01:47:38;;;;;;;8.15;4.22;;;;;;;23.89;54.80;100645.25;4878599;29;20110;-71
2023/08/13 01:50:07;;;;;;;6.30;4.32;;;;;;;23.89;54.80;100656.16;4878469;29;20053;-71
2023/08/13 01:52:36;;;;;;;7.60;4.22;;;;;;;23.87;54.84;100661.78;4878463;29;20057;-71
2023/08/13 01:55:07;;;;;;;7.80;4.68;;;;;;;23.87;54.82;100660.94;4878339;29;20064;-71
2023/08/13 01:57:36;;;;;;;7.85;4.88;;;;;;;23.83;54.94;100657.66;4878164;29;20064;-71
2023/08/13 02:00:07;;;;;;;5.70;4.28;;;;;;;23.82;55.03;100664.13;4878467;29;20444;-71
2023/08/13 02:02:35;;;;;;;5.90;4.75;;;;;;;23.80;55.09;100658.00;4878228;29;20491;-71
2023/08/13 02:05:04;;;;;;;7.43;4.50;;;;;;;23.79;55.04;100660.91;4878191;29;20119;-71
2023/08/13 02:07:32;;;;;;;7.25;4.70;;;;;;;23.78;55.14;100653.75;4878228;29;20056;-71
2023/08/13 02:10:00;;;;;;;6.25;4.43;;;;;;;23.74;54.89;100658.72;4877991;29;20053;-71
2023/08/13 02:12:33;;;;;;;11.02;4.38;;;;;;;23.74;55.18;100655.09;4878216;29;20057;-71
2023/08/13 02:15:01;;;;;;;6.82;4.60;;;;;;;23.73;55.27;100659.69;4878192;29;20053;-71
2023/08/13 02:17:29;;;;;;;5.97;4.40;;;;;;;23.68;55.18;100646.59;4877826;29;20467;-71
2023/08/13 02:19:58;;;;;;;7.13;4.85;;;;;;;23.69;55.25;100667.34;4877906;29;20060;-71
2023/08/13 02:22:26;;;;;;;6.65;4.50;;;;;;;23.69;55.34;100670.09;4877649;29;20053;-71
2023/08/13 02:24:54;;;;;;;6.22;4.47;;;;;;;23.65;55.33;100670.59;4877986;29;20101;-71
2023/08/13 02:27:22;;;;;;;7.75;4.68;;;;;;;23.64;55.33;100671.59;4878131;29;20136;-71
2023/08/13 02:29:52;;;;;;;7.25;4.50;;;;;;;23.63;55.25;100661.72;4877714;29;20056;-70
2023/08/13 02:32:20;;;;;;;7.95;4.47;;;;;;;23.63;55.52;100670.75;4877798;29;20057;-70
2023/08/13 02:34:48;;;;;;;6.43;4.28;;;;;;;23.62;55.51;100670.91;4877715;29;20149;-71
2023/08/13 02:37:17;;;;;;;6.13;4.00;;;;;;;23.59;55.52;100671.25;4877650;29;20590;-71
2023/08/13 02:39:45;;;;;;;8.15;4.40;;;;;;;23.58;55.63;100667.66;4877912;29;20053;-71
2023/08/13 02:42:13;;;;;;;8.02;4.53;;;;;;;23.55;55.49;100664.41;4877635;29;20517;-70
2023/08/13 02:44:42;;;;;;;6.90;4.22;;;;;;;23.54;55.67;100662.69;4877563;29;20494;-69
2023/08/13 02:47:12;;;;;;;5.28;3.88;;;;;;;23.56;55.53;100663.41;4877570;29;20059;-71
2023/08/13 02:49:40;;;;;;;6.78;4.45;;;;;;;23.54;55.61;100657.25;4877568;29;20527;-71
2023/08/13 02:52:08;;;;;;;6.78;4.30;;;;;;;23.54;55.71;100673.56;4877428;29;20551;-71
2023/08/13 02:54:36;;;;;;;6.43;4.22;;;;;;;23.51;55.76;100676.63;4877584;29;20049;-71
2023/08/13 02:57:04;;;;;;;7.90;4.28;;;;;;;23.49;55.79;100668.63;4877547;29;20056;-71
2023/08/13 02:59:33;;;;;;;8.88;4.60;;;;;;;23.48;55.79;100668.81;4877493;29;20060;-70
2023/08/13 03:02:01;;;;;;;5.55;4.00;;;;;;;23.47;55.84;100664.38;4877410;29;20495;-71
2023/08/13 03:04:30;;;;;;;6.93;4.68;;;;;;;23.46;55.91;100659.97;4877399;29;20151;-71
2023/08/13 03:07:01;;;;;;;6.57;4.40;;;;;;;23.44;55.89;100665.53;4877705;29;20049;-70
2023/08/13 03:09:31;;;;;;;6.63;4.00;;;;;;;23.40;55.77;100656.88;4877490;29;20048;-71
2023/08/13 03:11:59;;;;;;;6.13;4.28;;;;;;;23.40;55.94;100661.47;4877473;29;20493;-71
2023/08/13 03:14:27;;;;;;;8.27;4.53;;;;;;;23.37;56.14;100668.09;4877423;29;20052;-71
2023/08/13 03:16:55;;;;;;;5.85;4.30;;;;;;;23.38;56.01;100674.41;4877250;29;20057;-71
2023/08/13 03:19:24;;;;;;;6.55;4.50;;;;;;;23.36;55.99;100671.00;4877539;29;20056;-71
2023/08/13 03:21:53;;;;;;;5.82;4.43;;;;;;;23.35;56.09;100670.09;4876006;29;20060;-71
2023/08/13 03:24:21;;;;;;;6.22;4.10;;;;;;;23.33;56.12;100666.72;4877235;29;20108;-71
2023/08/13 03:26:49;;;;;;;5.75;4.13;;;;;;;23.33;55.99;100666.72;4877292;29;20045;-71
2023/08/13 03:29:17;;;;;;;5.97;4.10;;;;;;;23.32;56.07;100662.28;4877260;29;20405;-70
2023/08/13 03:31:46;;;;;;;5.95;4.20;;;;;;;23.31;56.22;100665.19;4877506;29;20049;-71
2023/08/13 03:34:14;;;;;;;5.43;4.28;;;;;;;23.30;56.09;100658.88;4877392;29;20060;-71
2023/08/13 03:36:42;;;;;;;5.55;4.10;;;;;;;23.28;56.29;100658.19;4877351;29;20049;-71
2023/08/13 03:39:11;;;;;;;7.97;4.35;;;;;;;23.26;56.15;100660.25;4877374;29;20113;-71
2023/08/13 03:41:39;;;;;;;5.28;3.97;;;;;;;23.25;56.21;100655.78;4879960;29;20461;-71
2023/08/13 03:44:08;;;;;;;6.65;4.50;;;;;;;23.24;56.24;100664.13;4880734;29;20060;-72
2023/08/13 03:46:36;;;;;;;6.90;4.28;;;;;;;23.23;56.20;100648.81;4880810;29;20071;-71
2023/08/13 03:49:04;;;;;;;5.38;3.88;;;;;;;23.22;56.27;100652.56;4880759;29;20056;-71
2023/08/13 03:51:32;;;;;;;8.68;4.78;;;;;;;23.18;56.33;100654.75;4880404;29;20056;-71
2023/08/13 03:54:01;;;;;;;7.03;4.35;;;;;;;23.18;56.39;100649.31;4880580;29;20646;-71
2023/08/13 03:56:35;;;;;;;6.55;4.30;;;;;;;23.17;56.33;100654.94;4880392;29;20049;-71
2023/08/13 03:59:04;;;;;;;7.25;4.20;;;;;;;23.16;56.26;100654.03;4880439;29;20546;-71
2023/08/13 04:01:32;;;;;;;5.70;4.10;;;;;;;23.16;56.38;100664.94;4880554;29;20080;-72
2023/08/13 04:04:01;;;;;;;6.05;4.35;;;;;;;23.14;56.45;100656.94;4880350;29;20152;-71
2023/08/13 04:06:29;;;;;;;6.82;4.20;;;;;;;23.13;56.44;100659.81;4880373;29;20136;-71
2023/08/13 04:08:57;;;;;;;5.97;3.88;;;;;;;23.12;56.52;100653.53;4880222;29;20140;-71
2023/08/13 04:11:25;;;;;;;6.15;3.90;;;;;;;23.11;56.52;100651.84;4880375;29;20136;-71
2023/08/13 04:13:55;;;;;;;5.47;4.00;;;;;;;23.10;56.54;100660.16;4880415;29;20156;-71
2023/08/13 04:16:23;;;;;;;7.00;4.20;;;;;;;23.10;56.59;100665.59;4879989;29;20049;-70
2023/08/13 04:18:51;;;;;;;6.93;4.43;;;;;;;23.09;56.73;100664.75;4880162;29;20056;-71
2023/08/13 04:21:19;;;;;;;6.20;4.28;;;;;;;23.06;56.62;100651.47;4879971;29;20053;-69
2023/08/13 04:23:48;;;;;;;7.00;4.47;;;;;;;23.07;56.76;100663.22;4879817;29;20092;-71
2023/08/13 04:26:16;;;;;;;6.93;4.68;;;;;;;23.04;56.82;100658.94;4880190;29;20049;-71
2023/08/13 04:28:45;;;;;;;7.10;4.50;;;;;;;23.03;56.78;100659.94;4880107;29;20053;-71
2023/08/13 04:31:15;;;;;;;6.45;4.82;;;;;;;23.02;56.70;100657.41;4880000;29;20133;-69
2023/08/13 04:33:43;;;;;;;5.80;4.40;;;;;;;23.04;56.75;100668.97;4879869;29;20061;-70
2023/08/13 04:36:11;;;;;;;7.35;4.90;;;;;;;23.04;56.86;100671.69;4879744;29;20090;-71
2023/08/13 04:38:40;;;;;;;6.22;4.30;;;;;;;23.02;56.81;100674.56;4880149;29;20053;-71
2023/08/13 04:41:08;;;;;;;6.78;4.57;;;;;;;23.02;56.94;100679.16;4879837;29;20049;-70
2023/08/13 04:43:36;;;;;;;6.85;4.38;;;;;;;23.01;56.98;100682.91;4879741;29;20050;-70
2023/08/13 04:46:04;;;;;;;6.07;4.35;;;;;;;23.01;56.90;100682.91;4879661;29;20121;-70
2023/08/13 04:48:44;;;;;;;6.22;4.50;;;;;;;23.00;56.85;100682.06;4879465;29;20059;-69
2023/08/13 04:51:17;;;;;;;6.60;4.55;;;;;;;22.99;57.15;100680.34;4879669;29;20059;-71
2023/08/13 04:53:45;;;;;;;6.28;4.30;;;;;;;22.98;57.10;100678.66;4879283;29;20069;-71
2023/08/13 04:56:13;;;;;;;5.63;4.60;;;;;;;22.97;57.11;100676.94;4879634;29;20109;-70
2023/08/13 04:58:42;;;;;;;6.75;4.10;;;;;;;22.98;57.17;100678.66;4879625;29;20052;-71
2023/08/13 05:01:10;;;;;;;6.43;4.40;;;;;;;22.98;57.15;100678.66;4879358;29;20101;-71
2023/08/13 05:03:39;;;;;;;6.03;4.28;;;;;;;22.96;57.20;100682.53;4879218;29;20049;-71
2023/08/13 05:06:08;;;;;;;5.78;4.40;;;;;;;22.97;57.29;100687.81;4879180;29;20567;-71
2023/08/13 05:08:37;;;;;;;5.10;4.15;;;;;;;22.97;57.37;100700.53;4879491;29;20048;-71
2023/08/13 05:11:06;;;;;;;5.88;4.10;;;;;;;22.98;57.39;100699.56;4879358;29;20409;-71
2023/08/13 05:13:34;;;;;;;6.60;4.40;;;;;;;22.97;57.37;100700.53;4879252;29;20136;-71
2023/08/13 05:16:02;;;;;;;5.97;4.30;;;;;;;22.97;57.40;100700.53;4879121;29;20482;-71
2023/08/13 05:18:31;;;;;;;6.45;4.45;;;;;;;22.97;57.31;100706.00;4879247;29;20080;-71
2023/08/13 05:20:59;;;;;;;5.45;4.25;;;;;;;22.97;57.42;100703.25;4879196;29;20056;-70
2023/08/13 05:23:29;;;;;;;6.32;4.20;;;;;;;22.96;57.47;100701.56;4878965;29;20049;-70
2023/08/13 05:25:57;;;;;;;6.32;4.47;;;;;;;22.97;57.56;100708.69;4878908;29;20084;-71
2023/08/13 05:28:25;;;;;;;7.32;4.30;;;;;;;22.97;57.56;100711.44;4878843;29;20487;-71
2023/08/13 05:30:53;;;;;;;6.45;4.15;;;;;;;22.97;57.61;100706.00;4878868;29;20053;-71
2023/08/13 05:33:21;;;;;;;7.30;4.53;;;;;;;22.97;57.73;100708.69;4878971;29;20092;-71
2023/08/13 05:35:50;;;;;;;6.38;4.55;;;;;;;22.97;57.72;100703.25;4879030;29;20508;-71
2023/08/13 05:38:20;;;;;;;5.28;3.92;;;;;;;22.96;57.65;100716.00;4878786;29;20132;-71
2023/08/13 05:40:50;;;;;;;5.10;3.97;;;;;;;22.98;57.83;100710.44;4878661;29;20063;-70
2023/08/13 05:43:18;;;;;;;6.68;4.60;;;;;;;22.97;57.89;100714.16;4878615;29;20053;-71
2023/08/13 05:45:46;;;;;;;6.00;4.28;;;;;;;22.97;57.80;100714.16;4878682;29;20488;-70
2023/08/13 05:48:17;;;;;;;7.03;4.47;;;;;;;22.99;57.74;100717.59;4878801;29;20053;-70
2023/08/13 05:50:45;;;;;;;8.02;4.45;;;;;;;22.97;57.90;100714.16;4877509;29;20223;-70
2023/08/13 05:53:14;;;;;;;5.53;4.13;;;;;;;22.98;57.81;100714.00;4878334;29;20064;-70
2023/08/13 05:55:42;;;;;;;5.15;4.00;;;;;;;22.99;57.86;100720.31;4878217;29;20095;-70
2023/08/13 05:58:12;;;;;;;5.53;4.15;;;;;;;23.00;57.81;100716.56;4878588;29;20053;-71
2023/08/13 06:00:40;;;;;;;7.38;4.30;;;;;;;23.00;57.75;100722.00;4878508;29;20051;-71
2023/08/13 06:03:09;;;;;;;7.32;4.45;;;;;;;23.01;57.93;100723.72;4878011;29;20438;-70
2023/08/13 06:05:38;;;;;;;6.50;4.10;;;;;;;22.99;57.80;100714.88;4878199;29;20503;-72
2023/08/13 06:08:07;;;;;;;5.80;4.07;;;;;;;23.01;57.87;100721.00;4878186;29;20345;-70
2023/08/13 06:10:38;;;;;;;5.70;4.00;;;;;;;23.01;57.94;100718.28;4878337;29;20049;-71
2023/08/13 06:13:06;;;;;;;6.18;4.20;;;;;;;23.02;58.01;100709.09;4878137;29;20057;-71
2023/08/13 06:15:35;;;;;;;5.40;3.90;;;;;;;23.03;57.97;100718.94;4878366;29;20049;-71
2023/08/13 06:18:04;;;;;;;5.07;3.95;;;;;;;23.03;57.98;100727.13;4877946;29;20049;-69
2023/08/13 06:20:32;;;;;;;6.10;3.80;;;;;;;23.04;57.84;100721.50;4878023;29;20076;-70
2023/08/13 06:23:00;;;;;;;6.43;4.10;;;;;;;23.04;57.96;100715.22;4877959;29;20415;-70
2023/08/13 06:25:29;;;;;;;5.25;4.00;;;;;;;23.05;58.01;100723.22;4877849;29;20642;-70
2023/08/13 06:27:57;;;;;;;8.13;3.83;;;;;;;23.05;57.91;100716.91;4877936;29;20056;-69
2023/08/13 06:30:25;;;;;;;5.57;4.32;;;;;;;23.05;57.87;100719.63;4877997;29;20143;-70
2023/08/13 06:32:54;;;;;;;5.63;4.10;;;;;;;23.06;57.89;100730.34;4877828;29;20124;-71
2023/08/13 06:35:23;;;;;;;6.30;4.47;;;;;;;23.07;57.73;100725.78;4877700;29;20053;-70
2023/08/13 06:37:51;;;;;;;5.63;4.05;;;;;;;23.09;57.71;100721.88;4877915;29;20140;-71
2023/08/13 06:40:30;;;;;;;5.43;4.05;;;;;;;23.08;57.83;100722.06;4877849;29;20092;-70
2023/08/13 06:42:58;;;;;;;5.50;4.10;;;;;;;23.10;57.71;100726.31;4877985;29;20049;-72
2023/08/13 06:45:27;;;;;;;5.35;3.97;;;;;;;23.11;57.73;100727.16;4877745;29;20052;-70
2023/08/13 06:47:58;;;;;;;6.30;4.13;;;;;;;23.11;57.65;100732.59;4877435;29;20106;-70
2023/08/13 06:50:27;;;;;;;5.22;3.90;;;;;;;23.11;57.76;100724.44;4877817;29;20056;-71
2023/08/13 06:52:56;;;;;;;6.65;4.20;;;;;;;23.11;57.58;100728.00;4877559;29;20069;-71
2023/08/13 06:55:24;;;;;;;5.25;3.95;;;;;;;23.11;57.82;100727.16;4877533;29;20491;-71
2023/08/13 06:57:52;;;;;;;5.15;3.85;;;;;;;23.12;57.90;100734.31;4877615;29;20168;-70
2023/08/13 07:00:21;;;;;;;6.57;4.00;;;;;;;23.14;57.87;100732.28;4877440;29;20105;-69
2023/08/13 07:03:11;;;;;;;5.95;4.07;;;;;;;23.15;57.76;100742.13;4877581;29;20049;-71
2023/08/13 07:05:41;;;;;;;7.10;4.38;;;;;;;23.16;57.75;100734.81;4877323;29;20499;-70
2023/08/13 07:08:10;;;;;;;6.07;3.95;;;;;;;23.16;57.82;100741.13;4877407;29;20110;-70
2023/08/13 07:10:39;;;;;;;6.45;3.70;;;;;;;23.18;57.70;100746.44;4877367;29;20052;-70
2023/08/13 07:13:08;;;;;;;5.13;3.90;;;;;;;23.19;57.65;100739.97;4877362;29;20053;-70
2023/08/13 07:15:36;;;;;;;5.90;4.55;;;;;;;23.19;57.81;100739.97;4879042;29;20049;-70
2023/08/13 07:18:05;;;;;;;5.20;3.95;;;;;;;23.20;57.84;100747.13;4881087;29;20513;-71
2023/08/13 07:20:35;;;;;;;5.32;4.10;;;;;;;23.19;57.90;100748.97;4881144;29;20460;-70
2023/08/13 07:23:04;;;;;;;6.30;4.20;;;;;;;23.20;57.97;100741.66;4881209;29;20060;-70
2023/08/13 07:25:35;;;;;;;7.40;4.00;;;;;;;23.21;57.85;100744.22;4880985;29;20487;-70
2023/08/13 07:28:06;;;;;;;5.78;3.70;;;;;;;23.22;57.80;100743.22;4881313;29;20104;-71
2023/08/13 07:30:34;;;;;;;6.38;4.22;;;;;;;23.23;57.64;100749.50;4880785;29;20080;-72
2023/08/13 07:33:02;;;;;;;5.63;3.92;;;;;;;23.24;57.77;100743.03;4880901;29;20487;-71
2023/08/13 07:35:30;;;;;;;6.18;4.10;;;;;;;23.25;57.75;100745.59;4880862;29;20196;-71
2023/08/13 07:38:00;;;;;;;7.47;4.13;;;;;;;23.26;57.78;100744.59;4880765;29;20073;-71
2023/08/13 07:40:31;;;;;;;8.80;3.80;;;;;;;23.28;57.74;100741.72;4880938;29;20097;-71
2023/08/13 07:43:00;;;;;;;5.20;3.78;;;;;;;23.29;57.76;100746.13;4880647;29;20117;-66
2023/08/13 07:45:29;;;;;;;8.93;4.22;;;;;;;23.29;57.75;100741.56;4880724;29;20575;-69
2023/08/13 07:47:58;;;;;;;5.00;3.72;;;;;;;23.28;57.85;100731.69;4880598;29;20063;-67
2023/08/13 07:50:27;;;;;;;5.13;3.92;;;;;;;23.30;57.75;100732.38;4880621;29;20109;-69
2023/08/13 07:52:55;;;;;;;5.38;4.00;;;;;;;23.31;57.58;100734.06;4879811;29;20057;-72
2023/08/13 07:55:24;;;;;;;6.38;4.03;;;;;;;23.33;57.45;100726.59;4879253;29;20503;-70
2023/08/13 07:57:53;;;;;;;5.43;3.60;;;;;;;23.34;57.58;100739.19;4879338;29;20491;-71
2023/08/13 08:00:21;;;;;;;4.70;3.85;;;;;;;23.36;57.39;100737.16;4879378;29;20081;-71
2023/08/13 08:02:49;;;;;;;6.10;3.78;;;;;;;23.37;57.37;100724.41;4879305;29;20471;-70
2023/08/13 08:05:18;;;;;;;5.03;3.53;;;;;;;23.39;57.41;100730.53;4879127;29;20153;-69
2023/08/13 08:07:46;;;;;;;5.13;3.80;;;;;;;23.39;57.36;100731.38;4879342;29;20084;-70
2023/08/13 08:10:14;;;;;;;6.68;4.53;;;;;;;23.41;57.26;100732.06;4879356;29;20128;-71
2023/08/13 08:12:44;;;;;;;5.40;4.00;;;;;;;23.42;56.92;100736.50;4879133;29;20056;-70
2023/08/13 08:15:12;;;;;;;6.22;4.18;;;;;;;23.42;57.03;100731.06;4879145;29;20109;-70
2023/08/13 08:17:40;;;;;;;6.47;4.10;;;;;;;23.43;56.80;100738.19;4879163;29;20053;-72
2023/08/13 08:20:09;;;;;;;4.60;3.60;;;;;;;23.46;56.54;100737.03;4879003;29;20060;-70
2023/08/13 08:22:37;;;;;;;5.15;3.70;;;;;;;23.48;56.26;100735.00;4879094;29;20048;-70
2023/08/13 08:25:10;;;;;;;6.10;3.78;;;;;;;23.48;56.36;100725.97;4879133;29;20057;-71
2023/08/13 08:27:39;;;;;;;6.72;3.70;;;;;;;23.51;56.34;100731.09;4878955;29;20498;-71
2023/08/13 08:30:09;;;;;;;6.13;4.15;;;;;;;23.51;56.20;100725.66;4878947;29;20060;-71
2023/08/13 08:32:37;;;;;;;5.60;3.60;;;;;;;23.52;56.27;100725.47;4879155;29;20153;-70
2023/08/13 08:35:06;;;;;;;5.18;3.50;;;;;;;23.54;56.02;100736.19;4878975;29;20075;-70
2023/08/13 08:37:34;;;;;;;4.63;3.42;;;;;;;23.54;55.91;100728.03;4878730;29;20491;-70
2023/08/13 08:40:04;;;;;;;5.30;3.45;;;;;;;23.59;54.68;100731.16;4878739;29;20368;-69
2023/08/13 08:42:37;;;;;;;7.45;3.78;;;;;;;23.67;53.13;100729.31;4878285;29;20053;-70
2023/08/13 08:45:06;;;;;;;5.20;3.25;;;;;;;23.72;52.78;100720.63;4886231;29;20091;-71
2023/08/13 08:47:37;;;;;;;5.18;3.40;;;;;;;23.79;53.60;100729.84;4897180;29;20108;-71
2023/08/13 08:50:06;;;;;;;6.15;3.30;;;;;;;24.04;50.10;100725.31;4881055;29;20097;-70
2023/08/13 08:52:35;;;;;;;6.20;3.55;;;;;;;24.12;49.12;100721.72;4840019;29;1139311;-70
2023/08/13 08:55:04;;;;;;;5.60;3.17;;;;;;;24.12;49.04;100717.13;4879459;29;20049;-70
2023/08/13 08:57:32;;;;;;;5.60;3.60;;;;;;;24.11;50.00;100720.03;4879759;29;20072;-70
2023/08/13 09:00:01;;;;;;;4.07;2.97;;;;;;;24.19;48.26;100720.88;4879343;29;20052;-70
2023/08/13 09:02:30;;;;;;;4.53;2.80;;;;;;;24.30;47.54;100714.25;4879667;29;20065;-70
2023/08/13 09:04:59;;;;;;;4.85;2.65;;;;;;;24.43;47.00;100713.78;4879574;29;20136;-67
2023/08/13 09:07:31;;;;;;;5.18;2.97;;;;;;;24.49;46.72;100697.56;4879270;29;20057;-69
2023/08/13 09:10:00;;;;;;;5.43;2.63;;;;;;;24.51;46.79;100700.13;4879269;29;20045;-69
2023/08/13 09:12:34;;;;;;;4.22;2.88;;;;;;;24.52;47.38;100694.53;4879420;29;20108;-69
2023/08/13 09:15:05;;;;;;;6.43;2.97;;;;;;;24.59;47.31;100700.13;4880393;29;20053;-69
2023/08/13 09:17:33;;;;;;;5.22;2.40;;;;;;;24.69;46.17;100703.53;4880364;29;20117;-69
2023/08/13 09:20:09;;;;;;;4.47;2.97;;;;;;;24.68;46.09;100701.81;4879445;29;20132;-68
2023/08/13 09:22:38;;;;;;;5.53;2.85;;;;;;;24.69;46.67;100702.66;4880173;29;20511;-70
2023/08/13 09:25:09;;;;;;;4.90;3.05;;;;;;;24.71;46.80;100700.66;4879549;29;20132;-67
2023/08/13 09:27:38;;;;;;;7.60;2.88;;;;;;;24.69;47.24;100691.75;4879143;29;20057;-68
2023/08/13 09:30:11;;;;;;;5.28;3.10;;;;;;;24.72;47.47;100692.28;4879584;29;20483;-68
2023/08/13 09:32:39;;;;;;;4.65;3.20;;;;;;;24.82;46.71;100694.81;4880051;29;20045;-66
2023/08/13 09:35:09;;;;;;;5.40;3.28;;;;;;;24.90;46.38;100694.81;4879289;29;20077;-67
2023/08/13 09:37:38;;;;;;;5.13;3.05;;;;;;;24.93;46.17;100697.19;4878945;29;20475;-65
2023/08/13 09:40:08;;;;;;;5.38;3.13;;;;;;;25.04;44.59;100688.66;4879380;29;20101;-68
2023/08/13 09:42:37;;;;;;;5.20;3.28;;;;;;;24.97;45.50;100693.06;4887878;29;20442;-67
2023/08/13 09:45:09;;;;;;;4.90;2.97;;;;;;;24.93;45.52;100694.44;4897724;29;20108;-69
2023/08/13 09:47:41;;;;;;;4.85;2.58;;;;;;;25.15;43.74;100692.03;4897540;29;20072;-69
2023/08/13 09:50:13;;;;;;;4.03;2.77;;;;;;;25.22;43.37;100685.69;4897549;29;20048;-67
2023/08/13 09:52:44;;;;;;;5.28;2.80;;;;;;;25.26;42.94;100688.91;4897252;29;20052;-66
2023/08/13 09:55:14;;;;;;;4.68;2.72;;;;;;;25.30;43.12;100695.72;4897249;29;20430;-68
2023/08/13 09:57:43;;;;;;;4.00;2.80;;;;;;;25.30;43.10;100691.13;4897199;29;20076;-68
2023/08/13 10:00:14;;;;;;;5.95;3.00;;;;;;;25.33;43.70;100695.38;4897018;29;20056;-68
2023/08/13 10:02:43;;;;;;;5.40;3.20;;;;;;;25.38;43.20;100691.09;4897331;29;20055;-66
2023/08/13 10:05:14;;;;;;;6.13;3.20;;;;;;;25.32;43.88;100690.94;4897009;29;20105;-69
2023/08/13 10:07:43;;;;;;;4.53;3.17;;;;;;;25.31;44.00;100686.50;4897004;29;20143;-67
2023/08/13 10:10:11;;;;;;;4.20;3.00;;;;;;;25.47;43.01;100685.56;4896911;29;20428;-65
2023/08/13 10:12:40;;;;;;;5.78;2.83;;;;;;;25.52;42.84;100688.63;4896863;29;20478;-68
2023/08/13 10:15:09;;;;;;;5.68;3.08;;;;;;;25.65;42.46;100688.88;4896843;29;20136;-67
2023/08/13 10:17:37;;;;;;;5.80;2.90;;;;;;;25.76;42.05;100684.91;4896963;29;20056;-67
2023/08/13 10:20:07;;;;;;;5.28;3.03;;;;;;;25.82;42.05;100689.66;4896823;29;20056;-69
2023/08/13 10:22:38;;;;;;;5.30;2.85;;;;;;;25.74;42.48;100681.53;4896766;29;20052;-69
2023/08/13 10:25:07;;;;;;;4.97;3.17;;;;;;;25.65;43.55;100683.41;4896587;29;20059;-69
2023/08/13 10:27:37;;;;;;;7.57;3.38;;;;;;;25.86;41.38;100680.91;4896648;29;20055;-69
2023/08/13 10:30:08;;;;;;;4.35;3.10;;;;;;;25.91;41.64;100689.44;4896503;29;20048;-68
2023/08/13 10:32:49;;;;;;;6.78;3.50;;;;;;;25.98;42.13;100678.63;4896680;29;20143;-69
2023/08/13 10:35:29;;;;;;;5.25;3.35;;;;;;;26.12;41.60;100687.91;4896509;29;20625;-70
2023/08/13 10:38:00;;;;;;;6.95;3.70;;;;;;;26.01;42.84;100677.41;4896441;29;20463;-69
2023/08/13 10:40:30;;;;;;;4.93;3.20;;;;;;;25.96;42.24;100680.69;4896673;29;20076;-68
2023/08/13 10:42:59;;;;;;;5.30;3.15;;;;;;;25.93;42.85;100670.13;4891488;29;20054;-70
2023/08/13 10:45:29;;;;;;;4.85;3.10;;;;;;;25.89;42.79;100666.91;4890987;29;20494;-69
2023/08/13 10:48:00;;;;;;;6.50;3.38;;;;;;;25.85;43.61;100673.75;4896799;29;20533;-69
2023/08/13 10:50:34;;;;;;;6.28;3.40;;;;;;;25.85;43.88;100667.44;4896183;29;20059;-69
2023/08/13 10:53:09;;;;;;;6.55;3.20;;;;;;;26.11;43.58;100665.19;4896312;29;20151;-69
2023/08/13 10:55:39;;;;;;;4.68;3.35;;;;;;;26.19;43.40;100662.41;4896036;29;20053;-68
2023/08/13 10:58:08;;;;;;;6.38;3.22;;;;;;;26.23;43.00;100660.13;4896321;29;20414;-68
2023/08/13 11:00:44;;;;;;;4.65;3.20;;;;;;;26.29;42.99;100653.09;4896215;29;20582;-66
2023/08/13 11:03:23;;;;;;;6.28;3.10;;;;;;;26.36;42.19;100660.38;4895928;29;20053;-70
2023/08/13 11:05:52;;;;;;;4.65;3.00;;;;;;;26.37;42.21;100655.75;4883319;29;20057;-71
2023/08/13 11:08:24;;;;;;;4.53;2.92;;;;;;;26.56;40.93;100658.00;4884318;29;20057;-69
2023/08/13 11:11:12;;;;;;;4.93;3.10;;;;;;;26.62;40.76;100659.97;4877558;29;20104;-70
2023/08/13 11:13:41;;;;;;;4.28;2.95;;;;;;;26.55;41.58;100653.56;4877839;29;20053;-72
2023/08/13 11:31:33;;;;;;;6.35;3.28;;;;;;;26.67;42.18;100654.81;4876849;29;20175;-66
2023/08/13 11:34:01;;;;;;;5.97;3.03;;;;;;;26.80;41.11;100657.72;4877408;29;20061;-67
2023/08/13 11:36:29;;;;;;;5.70;3.00;;;;;;;26.78;41.33;100656.22;4890721;29;20417;-64
2023/08/13 11:38:58;;;;;;;6.47;3.10;;;;;;;26.74;41.75;100653.03;4897095;29;20048;-64
2023/08/13 11:41:26;;;;;;;7.80;3.05;;;;;;;26.73;42.39;100655.91;4897369;29;20443;-65
2023/08/13 11:43:55;;;;;;;7.05;3.40;;;;;;;27.11;40.90;100653.97;4897045;29;20133;-64
2023/08/13 11:46:23;;;;;;;4.53;2.70;;;;;;;27.15;40.56;100655.31;4896905;29;20055;-64
2023/08/13 11:48:54;;;;;;;5.05;2.67;;;;;;;27.19;39.21;100656.63;4896118;29;20063;-65